Pays
Station

 

Conditions  météo  pour  Aeroporto Lins (Lins/SP)  -  Brésil    Brésil

  
22 °C
    
 
 

METAR pour Aeroporto Lins (Lins/SP) :

SBLN 110800Z 09010KT 5000 -TSRA SCT003 FEW030CB BKN300 22/21 Q1012

 

Voici le bulletin pour Aeroporto Lins (Lins/SP) - Brésil.
 
Le bulletin a été fait il y a 132 heures et 5 minutes, à 08:00 UTC .
Le vent soufflait à la vitesse de 5.1 mètres par seconde de Est (090°).
 
La température était de 22 °C, avec un point de rosée à 21 °C.
La température ressentie était de 20 °C.
 
La pression atmosphérique était de 1012 hPa.
L'humidité relative était de 94.1%.
 
Il y avait 3 à 4/8ème de nébulosité à une hauteur de 91 mètres, 1 à 2/8ème cumulonimbus de nébulosité à une hauteur de 914 mètres et 5 à 7/8ème de nébulosité à une hauteur de 9144 mètres.
 
La visibilité globale était de 5.0 kilomètres.
 
Actuellement orage avec léger/legère pluie.

 
 
 

Pays :   A   B   C   D   E   F   G   H   I   J   K   L   M   N   O   P   Q   R   S   T   U   V   W   Y   Z

 

Partenaires :  Info Météo avec Met'info
Météo Marine avec MeteoMarine.net
Infos Site  |  Infos Légales  |  Crédits  |  Confidentialité
Contactez-nous  |  Ajouter aux favoris
© 2013-2018 METAR - Tous droits réservés